Time;durP1;ratioP1;P1;durP2;ratioP2;P2;SDS_P1;SDS_P2;PMS_P1;PMS_P2;Temp;Humidity;BMP_temperature;BMP_pressure;BME280_temperature;BME280_humidity;BME280_pressure;Samples;Min_cycle;Max_cycle;Signal;HPM_P1;HPM_P2
2023/03/02 00:00:38;;;;;;;;;;;2.70;99.90;;;;;;4878836;29;20456;-75
2023/03/02 00:03:07;;;;;;;;;;;2.70;99.90;;;;;;4875183;29;19928;-75
2023/03/02 00:05:34;;;;;;;;;;;2.70;99.90;;;;;;4878611;29;19967;-76
2023/03/02 00:08:01;;;;;;;;;;;2.70;99.90;;;;;;4873256;29;19937;-76
2023/03/02 00:10:28;;;;;;;;;;;2.70;99.90;;;;;;4877625;29;20635;-75
2023/03/02 00:12:57;;;;;;;;;;;2.70;99.90;;;;;;4876841;29;20421;-76
2023/03/02 00:15:24;;;;;;;;;;;2.70;99.90;;;;;;4872916;29;19928;-76
2023/03/02 00:17:51;;;;;;;;;;;2.60;99.90;;;;;;4876698;29;20018;-76
2023/03/02 00:20:19;;;;;;;;;;;2.70;99.90;;;;;;4876019;29;19928;-76
2023/03/02 00:22:47;;;;;;;;;;;2.70;99.90;;;;;;4877003;29;19963;-76
2023/03/02 00:25:14;;;;;;;;;;;2.70;99.90;;;;;;4872861;29;19936;-75
2023/03/02 00:27:41;;;;;;;;;;;2.60;99.90;;;;;;4904591;29;19928;-75
2023/03/02 00:30:09;;;;;;;;;;;2.70;99.90;;;;;;4873799;29;19975;-75
2023/03/02 00:32:36;;;;;;;;;;;2.60;99.90;;;;;;4874226;29;19963;-75
2023/03/02 00:35:03;;;;;;;;;;;2.60;99.90;;;;;;4874181;29;20407;-74
2023/03/02 00:37:32;;;;;;;;;;;2.60;99.90;;;;;;4870099;29;19935;-75
2023/03/02 00:39:58;;;;;;;;;;;2.60;99.90;;;;;;4889836;29;19951;-76
2023/03/02 00:42:25;;;;;;;;;;;2.60;99.90;;;;;;4865623;29;19943;-76
2023/03/02 00:44:52;;;;;;;;;;;2.60;99.90;;;;;;4874508;29;19983;-75
2023/03/02 00:47:19;;;;;;;;;;;2.60;99.90;;;;;;4873765;29;19939;-75
2023/03/02 00:49:48;;;;;;;;;;;2.60;99.90;;;;;;4869383;29;20186;-76
2023/03/02 00:52:16;;;;;;;;;;;2.60;99.90;;;;;;4870878;29;20003;-75
2023/03/02 00:54:44;;;;;;;;;;;2.60;99.90;;;;;;4876391;29;19927;-76
2023/03/02 00:57:11;;;;;;;;;;;2.60;99.90;;;;;;4869004;29;19932;-76
2023/03/02 00:59:38;;;;;;;;;;;2.60;99.90;;;;;;4873322;29;20019;-75
2023/03/02 01:02:14;;;;;;;;;;;2.60;99.90;;;;;;4908894;29;19935;-75
2023/03/02 01:04:42;;;;;;;;;;;2.50;99.90;;;;;;4874603;29;20402;-75
2023/03/02 01:07:10;;;;;;;;;;;2.60;99.90;;;;;;4868942;29;19950;-76
2023/03/02 01:09:37;;;;;;;;;;;2.60;99.90;;;;;;4871763;29;19928;-75
2023/03/02 01:12:08;;;;;;;;;;;2.60;99.90;;;;;;4905099;29;19984;-76
2023/03/02 01:14:35;;;;;;;;;;;2.50;99.90;;;;;;4904207;29;19934;-75
2023/03/02 01:17:02;;;;;;;;;;;2.60;99.90;;;;;;4871120;29;19936;-75
2023/03/02 01:19:29;;;;;;;;;;;2.50;99.90;;;;;;4876627;29;19928;-76
2023/03/02 01:21:56;;;;;;;;;;;2.50;99.90;;;;;;4870766;29;20391;-76
2023/03/02 01:24:23;;;;;;;;;;;2.50;99.90;;;;;;4865171;29;19927;-75
2023/03/02 01:26:50;;;;;;;;;;;2.50;99.90;;;;;;4867688;29;20630;-76
2023/03/02 01:29:18;;;;;;;;;;;2.50;99.90;;;;;;4875667;29;19979;-75
2023/03/02 01:31:45;;;;;;;;;;;2.50;99.90;;;;;;4872841;29;20042;-76
2023/03/02 01:34:12;;;;;;;;;;;2.50;99.90;;;;;;4873361;29;19983;-75
2023/03/02 01:36:39;;;;;;;;;;;2.50;99.90;;;;;;4900670;29;19927;-75
2023/03/02 01:39:05;;;;;;;;;;;2.50;99.90;;;;;;4873395;29;19934;-76
2023/03/02 01:41:32;;;;;;;;;;;2.50;99.90;;;;;;4873269;29;19928;-76
2023/03/02 01:43:59;;;;;;;;;;;2.50;99.90;;;;;;4901786;29;20377;-75
2023/03/02 01:46:28;;;;;;;;;;;2.50;99.90;;;;;;4873105;29;20023;-76
2023/03/02 01:49:00;;;;;;;;;;;2.50;99.90;;;;;;4871968;29;19928;-76
2023/03/02 01:51:38;;;;;;;;;;;2.50;99.90;;;;;;4868558;29;19928;-75
2023/03/02 01:54:08;;;;;;;;;;;2.40;99.90;;;;;;4873884;29;19935;-76
2023/03/02 01:56:36;;;;;;;;;;;2.40;99.90;;;;;;4873768;29;19975;-76
2023/03/02 01:59:05;;;;;;;;;;;2.40;99.90;;;;;;4871789;29;19935;-75
2023/03/02 02:01:35;;;;;;;;;;;2.40;99.90;;;;;;4872631;29;19935;-76
2023/03/02 02:04:01;;;;;;;;;;;2.40;99.90;;;;;;4873928;29;20018;-75
2023/03/02 02:06:30;;;;;;;;;;;2.40;99.90;;;;;;4873186;29;19936;-76
2023/03/02 02:08:58;;;;;;;;;;;2.40;99.90;;;;;;4872567;29;19966;-75
2023/03/02 02:11:25;;;;;;;;;;;2.40;99.90;;;;;;4871033;29;19971;-75
2023/03/02 02:13:54;;;;;;;;;;;2.40;99.90;;;;;;4877540;29;20050;-75
2023/03/02 02:16:21;;;;;;;;;;;2.40;99.90;;;;;;4873544;29;19932;-75
2023/03/02 02:18:50;;;;;;;;;;;2.40;99.90;;;;;;4897551;29;19928;-75
2023/03/02 02:21:19;;;;;;;;;;;2.40;99.90;;;;;;4873259;29;20385;-76
2023/03/02 02:23:47;;;;;;;;;;;2.40;99.90;;;;;;4904616;29;20302;-75
2023/03/02 02:26:20;;;;;;;;;;;2.40;99.90;;;;;;4872365;29;20619;-76
2023/03/02 02:28:50;;;;;;;;;;;2.40;99.90;;;;;;4871806;29;19927;-75
2023/03/02 02:31:19;;;;;;;;;;;2.40;99.90;;;;;;4874190;29;19934;-76
2023/03/02 02:33:51;;;;;;;;;;;2.40;99.90;;;;;;4872794;29;19934;-75
2023/03/02 02:36:19;;;;;;;;;;;2.40;99.90;;;;;;4873651;29;19956;-76
2023/03/02 02:38:48;;;;;;;;;;;2.40;99.90;;;;;;4873795;29;19936;-75
2023/03/02 02:41:21;;;;;;;;;;;2.40;99.90;;;;;;4868650;29;20514;-76
2023/03/02 02:43:49;;;;;;;;;;;2.40;99.90;;;;;;4868678;29;20280;-76
2023/03/02 02:46:16;;;;;;;;;;;2.40;99.90;;;;;;4874135;29;19960;-75
2023/03/02 02:48:43;;;;;;;;;;;2.40;99.90;;;;;;4873333;29;19931;-75
2023/03/02 02:51:17;;;;;;;;;;;2.40;99.90;;;;;;4869472;29;20430;-75
2023/03/02 02:53:48;;;;;;;;;;;2.40;99.90;;;;;;4873735;29;20027;-75
2023/03/02 02:56:16;;;;;;;;;;;2.40;99.90;;;;;;4869629;29;19966;-75
2023/03/02 02:58:47;;;;;;;;;;;2.40;99.90;;;;;;4867938;29;20425;-75
2023/03/02 03:01:15;;;;;;;;;;;2.40;99.90;;;;;;4871520;29;19928;-76
2023/03/02 03:03:46;;;;;;;;;;;2.40;99.90;;;;;;4875120;29;19979;-75
2023/03/02 03:06:16;;;;;;;;;;;2.40;99.90;;;;;;4868876;29;19927;-75
2023/03/02 03:08:51;;;;;;;;;;;2.30;99.90;;;;;;4895244;29;19932;-75
2023/03/02 03:11:25;;;;;;;;;;;2.30;99.90;;;;;;4879505;29;19927;-76
2023/03/02 03:13:56;;;;;;;;;;;2.30;99.90;;;;;;4899175;29;19936;-75
2023/03/02 03:16:23;;;;;;;;;;;2.30;99.90;;;;;;4866465;29;20229;-75
2023/03/02 03:18:51;;;;;;;;;;;2.30;99.90;;;;;;4875333;29;19934;-76
2023/03/02 03:21:18;;;;;;;;;;;2.30;99.90;;;;;;4870365;29;19928;-75
2023/03/02 03:23:45;;;;;;;;;;;2.30;99.90;;;;;;4873945;29;19928;-75
2023/03/02 03:26:12;;;;;;;;;;;2.30;99.90;;;;;;4870681;29;19932;-75
2023/03/02 03:28:39;;;;;;;;;;;2.30;99.90;;;;;;4876383;29;20318;-75
2023/03/02 03:31:08;;;;;;;;;;;2.30;99.90;;;;;;4871786;29;19951;-75
2023/03/02 03:33:34;;;;;;;;;;;2.30;99.90;;;;;;4875113;29;20398;-76
2023/03/02 03:36:01;;;;;;;;;;;2.30;99.90;;;;;;4870946;29;19931;-75
2023/03/02 03:38:29;;;;;;;;;;;2.30;99.90;;;;;;4875011;29;19939;-76
2023/03/02 03:40:56;;;;;;;;;;;2.30;99.90;;;;;;4898202;29;19932;-75
2023/03/02 03:43:23;;;;;;;;;;;2.30;99.90;;;;;;4868589;29;19938;-76
2023/03/02 03:45:53;;;;;;;;;;;2.30;99.90;;;;;;4869458;29;20478;-75
2023/03/02 03:48:21;;;;;;;;;;;2.30;99.90;;;;;;4871051;29;19928;-75
2023/03/02 03:50:49;;;;;;;;;;;2.30;99.90;;;;;;4867418;29;19961;-75
2023/03/02 03:53:16;;;;;;;;;;;2.30;99.90;;;;;;4864597;29;19978;-76
2023/03/02 03:55:42;;;;;;;;;;;2.30;99.90;;;;;;4874657;29;19984;-76
2023/03/02 03:58:09;;;;;;;;;;;2.30;99.90;;;;;;4870599;29;19989;-76
2023/03/02 04:00:36;;;;;;;;;;;2.30;99.90;;;;;;4869171;29;19934;-75
2023/03/02 04:03:08;;;;;;;;;;;2.20;99.90;;;;;;4868340;29;19935;-75
2023/03/02 04:05:36;;;;;;;;;;;2.30;99.90;;;;;;4873129;29;20418;-76
2023/03/02 04:08:04;;;;;;;;;;;2.30;99.90;;;;;;4869505;29;19932;-76
2023/03/02 04:10:32;;;;;;;;;;;2.20;99.90;;;;;;4864703;29;20269;-75
2023/03/02 04:13:00;;;;;;;;;;;2.20;99.90;;;;;;4879989;29;20015;-76
2023/03/02 04:15:27;;;;;;;;;;;2.20;99.90;;;;;;4873621;29;19932;-76
2023/03/02 04:17:55;;;;;;;;;;;2.20;99.90;;;;;;4868416;29;19984;-76
2023/03/02 04:20:23;;;;;;;;;;;2.20;99.90;;;;;;4870888;29;19933;-75
2023/03/02 04:22:55;;;;;;;;;;;2.20;99.90;;;;;;4875293;29;20018;-75
2023/03/02 04:25:23;;;;;;;;;;;2.20;99.90;;;;;;4877113;29;19966;-76
2023/03/02 04:27:54;;;;;;;;;;;2.20;99.90;;;;;;4901975;29;19939;-76
2023/03/02 04:30:23;;;;;;;;;;;2.20;99.90;;;;;;4874463;29;20446;-75
2023/03/02 04:32:50;;;;;;;;;;;2.20;99.90;;;;;;4875340;29;19928;-75
2023/03/02 04:35:17;;;;;;;;;;;2.20;99.90;;;;;;4876661;29;19936;-75
2023/03/02 04:37:45;;;;;;;;;;;2.20;99.90;;;;;;4882129;29;19936;-76
2023/03/02 04:40:15;;;;;;;;;;;2.20;99.90;;;;;;4867824;29;19932;-75
2023/03/02 04:42:43;;;;;;;;;;;2.20;99.90;;;;;;4875849;29;19928;-75
2023/03/02 04:45:10;;;;;;;;;;;2.20;99.90;;;;;;4872617;29;19928;-76
2023/03/02 04:47:37;;;;;;;;;;;2.20;99.90;;;;;;4864960;29;20027;-77
2023/03/02 04:50:04;;;;;;;;;;;2.20;99.90;;;;;;4877872;29;20288;-77
2023/03/02 04:52:31;;;;;;;;;;;2.20;99.90;;;;;;4871529;29;19933;-76
2023/03/02 04:54:58;;;;;;;;;;;2.20;99.90;;;;;;4879014;29;19927;-77
2023/03/02 04:57:26;;;;;;;;;;;2.20;99.90;;;;;;4873224;29;19931;-75
2023/03/02 04:59:53;;;;;;;;;;;2.20;99.90;;;;;;4880101;29;20375;-76
2023/03/02 05:02:19;;;;;;;;;;;2.20;99.90;;;;;;4875662;29;20018;-76
2023/03/02 05:04:46;;;;;;;;;;;2.20;99.90;;;;;;4873484;29;20022;-76
2023/03/02 05:07:13;;;;;;;;;;;2.20;99.90;;;;;;4867327;29;19971;-75
2023/03/02 05:09:40;;;;;;;;;;;2.20;99.90;;;;;;4868825;29;19928;-76
2023/03/02 05:12:07;;;;;;;;;;;2.20;99.90;;;;;;4874880;29;19994;-76
2023/03/02 05:14:35;;;;;;;;;;;2.20;99.90;;;;;;4873840;29;19934;-76
2023/03/02 05:17:02;;;;;;;;;;;2.20;99.90;;;;;;4877225;29;19927;-76
2023/03/02 05:19:29;;;;;;;;;;;2.20;99.90;;;;;;4876523;29;19927;-76
2023/03/02 05:21:56;;;;;;;;;;;2.20;99.90;;;;;;4877369;29;19932;-76
2023/03/02 05:24:23;;;;;;;;;;;2.20;99.90;;;;;;4877975;29;19928;-76
2023/03/02 05:26:49;;;;;;;;;;;2.20;99.90;;;;;;4900308;29;19931;-76
2023/03/02 05:29:16;;;;;;;;;;;2.20;99.90;;;;;;4875783;29;19999;-76
2023/03/02 05:31:45;;;;;;;;;;;2.20;99.90;;;;;;4894546;29;20390;-76
2023/03/02 05:34:13;;;;;;;;;;;2.20;99.90;;;;;;4874623;29;19928;-76
2023/03/02 05:36:40;;;;;;;;;;;2.20;99.90;;;;;;4902875;29;19927;-76
2023/03/02 05:39:07;;;;;;;;;;;2.20;99.90;;;;;;4870058;29;20383;-76
2023/03/02 05:41:34;;;;;;;;;;;2.20;99.90;;;;;;4875788;29;20027;-75
2023/03/02 05:44:01;;;;;;;;;;;2.20;99.90;;;;;;4875146;29;19928;-77
2023/03/02 05:46:28;;;;;;;;;;;2.20;99.90;;;;;;4872068;29;19935;-75
2023/03/02 05:48:56;;;;;;;;;;;2.10;99.90;;;;;;4876065;29;19955;-76
2023/03/02 05:51:23;;;;;;;;;;;2.20;99.90;;;;;;4878501;29;19932;-75
2023/03/02 05:53:50;;;;;;;;;;;2.20;99.90;;;;;;4872457;29;19934;-75
2023/03/02 05:56:19;;;;;;;;;;;2.20;99.90;;;;;;4876470;29;20759;-77
2023/03/02 05:58:46;;;;;;;;;;;2.20;99.90;;;;;;4865852;29;19932;-75
2023/03/02 06:01:13;;;;;;;;;;;2.20;99.90;;;;;;4873909;29;20430;-77
2023/03/02 06:03:39;;;;;;;;;;;2.20;99.90;;;;;;4872671;29;19967;-75
2023/03/02 06:06:12;;;;;;;;;;;2.20;99.90;;;;;;4870792;29;19943;-76
2023/03/02 06:08:39;;;;;;;;;;;2.20;99.90;;;;;;4902856;29;20040;-77
2023/03/02 06:11:06;;;;;;;;;;;2.10;99.90;;;;;;4873103;29;19932;-76
2023/03/02 06:13:33;;;;;;;;;;;2.10;99.90;;;;;;4873022;29;19959;-76
2023/03/02 06:16:00;;;;;;;;;;;2.20;99.90;;;;;;4870639;29;20434;-76
2023/03/02 06:18:27;;;;;;;;;;;2.10;99.90;;;;;;4879324;29;19928;-77
2023/03/02 06:20:54;;;;;;;;;;;2.10;99.90;;;;;;4873098;29;19932;-75
2023/03/02 06:23:22;;;;;;;;;;;2.10;99.90;;;;;;4906412;29;19935;-77
2023/03/02 06:25:49;;;;;;;;;;;2.20;99.90;;;;;;4873876;29;19967;-77
2023/03/02 06:28:17;;;;;;;;;;;2.10;99.90;;;;;;4875615;29;20417;-77
2023/03/02 06:30:44;;;;;;;;;;;2.10;99.90;;;;;;4876531;29;19958;-77
2023/03/02 06:33:11;;;;;;;;;;;2.10;99.90;;;;;;4872113;29;19935;-77
2023/03/02 06:35:38;;;;;;;;;;;2.10;99.90;;;;;;4873057;29;20039;-77
2023/03/02 06:38:05;;;;;;;;;;;2.10;99.90;;;;;;4873669;29;20059;-77
2023/03/02 06:40:33;;;;;;;;;;;2.10;99.90;;;;;;4869203;29;20388;-78
2023/03/02 06:43:00;;;;;;;;;;;2.10;99.90;;;;;;4876215;29;19931;-79
2023/03/02 06:45:27;;;;;;;;;;;2.10;99.90;;;;;;4871365;29;19995;-78
2023/03/02 06:47:54;;;;;;;;;;;2.10;99.90;;;;;;4874024;29;19928;-78
2023/03/02 06:50:21;;;;;;;;;;;2.10;99.90;;;;;;4870957;29;19932;-78
2023/03/02 06:52:48;;;;;;;;;;;2.10;99.90;;;;;;4867805;29;19999;-78
2023/03/02 06:55:15;;;;;;;;;;;2.10;99.90;;;;;;4875721;29;19967;-78
2023/03/02 06:57:43;;;;;;;;;;;2.10;99.90;;;;;;4875427;29;19975;-78
2023/03/02 07:00:16;;;;;;;;;;;2.10;99.90;;;;;;4902658;29;20391;-77
2023/03/02 07:02:42;;;;;;;;;;;2.10;99.90;;;;;;4913156;29;20459;-78
2023/03/02 07:05:09;;;;;;;;;;;2.10;99.90;;;;;;4873199;29;20406;-77
2023/03/02 07:07:36;;;;;;;;;;;2.10;99.90;;;;;;4876963;29;19936;-78
2023/03/02 07:10:03;;;;;;;;;;;2.10;99.90;;;;;;4879383;29;19936;-78
2023/03/02 07:12:30;;;;;;;;;;;2.10;99.90;;;;;;4874011;29;19935;-77
2023/03/02 07:14:58;;;;;;;;;;;2.10;99.90;;;;;;4880793;29;19936;-77
2023/03/02 07:17:25;;;;;;;;;;;2.10;99.90;;;;;;4879220;29;19932;-78
2023/03/02 07:19:52;;;;;;;;;;;2.10;99.90;;;;;;4876239;29;19928;-78
2023/03/02 07:22:19;;;;;;;;;;;2.10;99.90;;;;;;4870799;29;20319;-77
2023/03/02 07:24:46;;;;;;;;;;;2.10;99.90;;;;;;4874963;29;19927;-78
2023/03/02 07:27:12;;;;;;;;;;;2.10;99.90;;;;;;4878825;29;19931;-77
2023/03/02 07:29:39;;;;;;;;;;;2.10;99.90;;;;;;4872376;29;20011;-77
2023/03/02 07:32:08;;;;;;;;;;;2.10;99.90;;;;;;4877754;29;19936;-78
2023/03/02 07:34:34;;;;;;;;;;;2.10;99.90;;;;;;4875447;29;20014;-77
2023/03/02 07:37:01;;;;;;;;;;;2.10;99.90;;;;;;4878185;29;20014;-78
2023/03/02 07:39:28;;;;;;;;;;;2.10;99.90;;;;;;4905304;29;20004;-77
2023/03/02 07:41:57;;;;;;;;;;;2.10;99.90;;;;;;4872518;29;20379;-78
2023/03/02 07:44:24;;;;;;;;;;;2.10;99.90;;;;;;4874536;29;19931;-78
2023/03/02 07:46:51;;;;;;;;;;;2.10;99.90;;;;;;4879154;29;20446;-78
2023/03/02 07:49:19;;;;;;;;;;;2.10;99.90;;;;;;4870375;29;19931;-79
2023/03/02 07:51:46;;;;;;;;;;;2.10;99.90;;;;;;4879093;29;19963;-77
2023/03/02 07:54:12;;;;;;;;;;;2.10;99.90;;;;;;4866488;29;20391;-77
2023/03/02 07:56:39;;;;;;;;;;;2.10;99.90;;;;;;4874587;29;20340;-78
2023/03/02 07:59:06;;;;;;;;;;;2.10;99.90;;;;;;4875317;29;19929;-78
2023/03/02 08:01:33;;;;;;;;;;;2.10;99.90;;;;;;4879162;29;20421;-77
2023/03/02 08:04:00;;;;;;;;;;;2.10;99.90;;;;;;4876820;29;19978;-77
2023/03/02 08:06:28;;;;;;;;;;;2.10;99.90;;;;;;4875577;29;19936;-77
2023/03/02 08:08:55;;;;;;;;;;;2.10;99.90;;;;;;4878844;29;19927;-79
2023/03/02 08:11:22;;;;;;;;;;;2.10;99.90;;;;;;4880840;29;19928;-77
2023/03/02 08:13:48;;;;;;;;;;;2.10;99.90;;;;;;4876197;29;20011;-77
2023/03/02 08:16:15;;;;;;;;;;;2.10;99.90;;;;;;4878624;29;20297;-77
2023/03/02 08:18:42;;;;;;;;;;;2.10;99.90;;;;;;4879365;29;20346;-78
2023/03/02 08:21:13;;;;;;;;;;;2.10;99.90;;;;;;4879036;29;19999;-77
2023/03/02 08:23:42;;;;;;;;;;;2.10;99.90;;;;;;4878173;29;19954;-78
2023/03/02 08:26:09;;;;;;;;;;;2.10;99.90;;;;;;4876989;29;20196;-77
2023/03/02 08:28:36;;;;;;;;;;;2.10;99.90;;;;;;4875101;29;20023;-77
2023/03/02 08:31:03;;;;;;;;;;;2.10;99.90;;;;;;4879538;29;19935;-78
2023/03/02 08:33:30;;;;;;;;;;;2.10;99.90;;;;;;4879156;29;20311;-78
2023/03/02 08:35:58;;;;;;;;;;;2.10;99.90;;;;;;4877673;29;19932;-78
2023/03/02 08:38:25;;;;;;;;;;;2.10;99.90;;;;;;4879805;29;19928;-77
2023/03/02 08:40:53;;;;;;;;;;;2.10;99.90;;;;;;4877492;29;19928;-78
2023/03/02 08:43:20;;;;;;;;;;;2.10;99.90;;;;;;4902022;29;19935;-77
2023/03/02 08:45:50;;;;;;;;;;;2.10;99.90;;;;;;4877547;29;20023;-78
2023/03/02 08:48:17;;;;;;;;;;;2.10;99.90;;;;;;4874180;29;19928;-78
2023/03/02 08:50:53;;;;;;;;;;;2.10;99.90;;;;;;4885654;29;19932;-78
2023/03/02 08:53:20;;;;;;;;;;;2.10;99.90;;;;;;4868208;29;19932;-78
2023/03/02 08:55:47;;;;;;;;;;;2.10;99.90;;;;;;4905570;29;19928;-79
2023/03/02 08:58:15;;;;;;;;;;;2.10;99.90;;;;;;4885726;29;19935;-78
2023/03/02 09:00:43;;;;;;;;;;;2.10;99.90;;;;;;4880448;29;19931;-78
2023/03/02 09:03:09;;;;;;;;;;;2.10;99.90;;;;;;4877816;29;20454;-79
2023/03/02 09:05:36;;;;;;;;;;;2.10;99.90;;;;;;4881736;29;20324;-77
2023/03/02 09:08:03;;;;;;;;;;;2.10;99.90;;;;;;4878713;29;20023;-78
2023/03/02 09:10:30;;;;;;;;;;;2.10;99.90;;;;;;4875416;29;19928;-77
2023/03/02 09:12:57;;;;;;;;;;;2.10;99.90;;;;;;4877825;29;19967;-77
2023/03/02 09:15:25;;;;;;;;;;;2.10;99.90;;;;;;4879170;29;19928;-78
2023/03/02 09:17:52;;;;;;;;;;;2.10;99.90;;;;;;4908088;29;19977;-77
2023/03/02 09:20:19;;;;;;;;;;;2.20;99.90;;;;;;4905677;29;20449;-79
2023/03/02 09:22:49;;;;;;;;;;;2.20;99.90;;;;;;4875514;29;20492;-77
2023/03/02 09:25:17;;;;;;;;;;;2.20;99.90;;;;;;4877921;29;19936;-77
2023/03/02 09:27:44;;;;;;;;;;;2.20;99.90;;;;;;4876397;29;19928;-78
2023/03/02 09:30:11;;;;;;;;;;;2.20;99.90;;;;;;4878575;29;19979;-79
2023/03/02 09:32:40;;;;;;;;;;;2.20;99.90;;;;;;4879378;29;19946;-77
2023/03/02 09:35:07;;;;;;;;;;;2.20;99.90;;;;;;4879104;29;19928;-78
2023/03/02 09:37:37;;;;;;;;;;;2.20;99.90;;;;;;4880057;29;19999;-78
2023/03/02 09:40:05;;;;;;;;;;;2.20;99.90;;;;;;4880427;29;19943;-78
2023/03/02 09:42:47;;;;;;;;;;;2.20;99.90;;;;;;4875987;29;19939;-78
2023/03/02 09:45:24;;;;;;;;;;;2.20;99.90;;;;;;4875188;29;19981;-78
2023/03/02 09:48:00;;;;;;;;;;;2.20;99.90;;;;;;4879307;29;19955;-77
2023/03/02 09:50:30;;;;;;;;;;;2.30;99.90;;;;;;4878332;29;19928;-77
2023/03/02 09:53:04;;;;;;;;;;;2.30;99.90;;;;;;4876836;29;20243;-77
2023/03/02 09:55:33;;;;;;;;;;;2.30;99.90;;;;;;4882232;29;19938;-77
2023/03/02 09:58:01;;;;;;;;;;;2.30;99.90;;;;;;4873946;29;19936;-78
2023/03/02 10:00:29;;;;;;;;;;;2.30;99.90;;;;;;4881617;29;20390;-78
2023/03/02 10:02:59;;;;;;;;;;;2.30;99.90;;;;;;4877369;29;20340;-78
2023/03/02 10:05:27;;;;;;;;;;;2.30;99.90;;;;;;4878356;29;19942;-77
2023/03/02 10:07:54;;;;;;;;;;;2.30;99.90;;;;;;4890450;29;19975;-78
2023/03/02 10:10:23;;;;;;;;;;;2.30;99.90;;;;;;4876020;29;20302;-78
2023/03/02 10:12:58;;;;;;;;;;;2.40;99.90;;;;;;4876269;29;20477;-78
2023/03/02 10:15:29;;;;;;;;;;;2.40;99.90;;;;;;4905155;29;19960;-77
2023/03/02 10:18:00;;;;;;;;;;;2.40;99.90;;;;;;4876305;29;20019;-77
2023/03/02 10:20:30;;;;;;;;;;;2.40;99.90;;;;;;4875252;29;19984;-77
2023/03/02 10:22:59;;;;;;;;;;;2.40;99.90;;;;;;4877104;29;19928;-77
2023/03/02 10:25:31;;;;;;;;;;;2.40;99.90;;;;;;4878667;29;20000;-78
2023/03/02 10:28:01;;;;;;;;;;;2.40;99.90;;;;;;4875198;29;20006;-78
2023/03/02 10:30:30;;;;;;;;;;;2.50;99.90;;;;;;4874510;29;19939;-78
2023/03/02 10:33:00;;;;;;;;;;;2.50;99.90;;;;;;4882044;29;20010;-78
2023/03/02 10:35:28;;;;;;;;;;;2.40;99.90;;;;;;4878042;29;19928;-77
2023/03/02 10:37:57;;;;;;;;;;;2.50;99.90;;;;;;4874176;29;20026;-77
2023/03/02 10:40:29;;;;;;;;;;;2.50;99.90;;;;;;4873057;29;20407;-79
2023/03/02 10:42:57;;;;;;;;;;;2.50;99.90;;;;;;4877453;29;20352;-78
2023/03/02 10:45:26;;;;;;;;;;;2.50;99.90;;;;;;4871535;29;19928;-77
2023/03/02 10:48:01;;;;;;;;;;;2.60;99.90;;;;;;4874130;29;19931;-77
2023/03/02 10:50:29;;;;;;;;;;;2.60;99.90;;;;;;4888131;29;19932;-78
2023/03/02 10:52:56;;;;;;;;;;;2.60;99.90;;;;;;4879225;29;20035;-77
2023/03/02 10:55:23;;;;;;;;;;;2.60;99.90;;;;;;4881725;29;20011;-78
2023/03/02 10:57:59;;;;;;;;;;;2.60;99.90;;;;;;4877733;29;19932;-77
2023/03/02 11:00:28;;;;;;;;;;;2.60;99.90;;;;;;4877086;29;19932;-77
2023/03/02 11:02:56;;;;;;;;;;;2.70;99.90;;;;;;4875085;29;20399;-78
2023/03/02 11:05:34;;;;;;;;;;;2.70;99.90;;;;;;4878051;29;20583;-78
2023/03/02 11:08:02;;;;;;;;;;;2.70;99.90;;;;;;4881090;29;19935;-78
2023/03/02 11:10:30;;;;;;;;;;;2.70;99.90;;;;;;4879050;29;19928;-78
2023/03/02 11:12:58;;;;;;;;;;;2.70;99.90;;;;;;4873207;29;19935;-78
2023/03/02 11:15:26;;;;;;;;;;;2.70;99.90;;;;;;4876276;29;19936;-78
2023/03/02 11:17:55;;;;;;;;;;;2.70;99.90;;;;;;4902631;29;19927;-77
2023/03/02 11:20:25;;;;;;;;;;;2.70;99.90;;;;;;4876785;29;20096;-78
2023/03/02 11:22:56;;;;;;;;;;;2.80;99.90;;;;;;4872560;29;19928;-76
2023/03/02 11:25:26;;;;;;;;;;;2.80;99.90;;;;;;4879226;29;19973;-77
2023/03/02 11:27:56;;;;;;;;;;;2.90;99.90;;;;;;4877219;29;19980;-77
2023/03/02 11:30:25;;;;;;;;;;;2.90;99.90;;;;;;4874429;29;20565;-77
2023/03/02 11:32:54;;;;;;;;;;;2.90;99.90;;;;;;4874077;29;19932;-77
2023/03/02 11:35:26;;;;;;;;;;;2.90;99.90;;;;;;4877886;29;19999;-76
2023/03/02 11:37:56;;;;;;;;;;;2.90;99.90;;;;;;4913811;29;19932;-76
2023/03/02 11:40:26;;;;;;;;;;;2.90;99.90;;;;;;4878896;29;20026;-78
2023/03/02 11:42:55;;;;;;;;;;;3.00;99.90;;;;;;4904834;29;19932;-77
2023/03/02 11:45:23;;;;;;;;;;;3.00;99.90;;;;;;4881036;29;20022;-76
2023/03/02 11:47:52;;;;;;;;;;;3.10;99.90;;;;;;4886365;29;19957;-76
2023/03/02 11:50:20;;;;;;;;;;;3.00;99.90;;;;;;4877693;29;19928;-77
2023/03/02 11:52:49;;;;;;;;;;;3.10;99.90;;;;;;4909340;29;20344;-76
2023/03/02 11:55:19;;;;;;;;;;;3.10;99.90;;;;;;4879675;29;19927;-76
2023/03/02 11:57:48;;;;;;;;;;;3.10;99.90;;;;;;4914680;29;19971;-77
2023/03/02 12:00:24;;;;;;;;;;;3.10;99.90;;;;;;4913574;29;19927;-78
2023/03/02 12:02:58;;;;;;;;;;;3.10;99.90;;;;;;4902805;29;19936;-77
2023/03/02 12:05:26;;;;;;;;;;;3.10;99.90;;;;;;4876957;29;19935;-78
2023/03/02 12:07:59;;;;;;;;;;;3.10;99.90;;;;;;4880630;29;19935;-79
2023/03/02 12:10:31;;;;;;;;;;;3.20;99.90;;;;;;4877337;29;19955;-77
2023/03/02 12:13:02;;;;;;;;;;;3.20;99.90;;;;;;4878672;29;19944;-78
2023/03/02 12:15:38;;;;;;;;;;;3.30;99.90;;;;;;4875102;29;20026;-78
2023/03/02 12:18:15;;;;;;;;;;;3.30;99.90;;;;;;4876495;29;19939;-77
2023/03/02 12:20:42;;;;;;;;;;;3.30;99.90;;;;;;4919605;29;20410;-79
2023/03/02 12:23:09;;;;;;;;;;;3.30;99.90;;;;;;4875209;29;19963;-78
2023/03/02 12:25:40;;;;;;;;;;;3.30;99.90;;;;;;4879722;29;19932;-77
2023/03/02 12:28:24;;;;;;;;;;;3.40;99.90;;;;;;4879199;29;20035;-79
2023/03/02 12:30:55;;;;;;;;;;;3.40;99.90;;;;;;4905193;29;19934;-78
2023/03/02 12:33:22;;;;;;;;;;;3.40;99.90;;;;;;4879899;29;19928;-76
2023/03/02 12:35:55;;;;;;;;;;;3.40;99.90;;;;;;4872490;29;19972;-78
2023/03/02 12:38:26;;;;;;;;;;;3.40;99.90;;;;;;4877264;29;20397;-76
2023/03/02 12:41:05;;;;;;;;;;;3.50;99.90;;;;;;4881006;29;19927;-77
2023/03/02 12:43:32;;;;;;;;;;;3.50;99.90;;;;;;4871396;29;20302;-77
2023/03/02 12:46:17;;;;;;;;;;;3.60;99.90;;;;;;4881146;29;19983;-77
2023/03/02 12:48:45;;;;;;;;;;;3.60;99.90;;;;;;4885569;29;20466;-78
2023/03/02 12:51:14;;;;;;;;;;;3.60;99.90;;;;;;4879684;29;19928;-79
2023/03/02 12:53:41;;;;;;;;;;;3.70;99.90;;;;;;4885212;29;19927;-79
2023/03/02 12:56:09;;;;;;;;;;;3.70;99.90;;;;;;4875598;29;19928;-79
2023/03/02 12:58:36;;;;;;;;;;;3.70;99.90;;;;;;4880777;29;19985;-79
2023/03/02 13:01:04;;;;;;;;;;;3.70;99.90;;;;;;4880310;29;19935;-79
2023/03/02 13:03:31;;;;;;;;;;;3.80;99.90;;;;;;4877037;29;19942;-79
2023/03/02 13:06:02;;;;;;;;;;;3.80;99.90;;;;;;4877156;29;20450;-78
2023/03/02 13:08:29;;;;;;;;;;;3.80;99.90;;;;;;4878268;29;19943;-79
2023/03/02 13:10:57;;;;;;;;;;;3.80;99.90;;;;;;4873537;29;19936;-78
2023/03/02 13:13:27;;;;;;;;;;;3.80;99.90;;;;;;4876516;29;20502;-78
2023/03/02 13:15:56;;;;;;;;;;;3.80;99.90;;;;;;4872761;29;20051;-78
2023/03/02 13:18:24;;;;;;;;;;;3.80;99.90;;;;;;4869581;29;19936;-78
2023/03/02 13:20:52;;;;;;;;;;;3.90;99.90;;;;;;4866806;29;20043;-77
2023/03/02 13:23:19;;;;;;;;;;;4.00;99.90;;;;;;4872160;29;20193;-77
2023/03/02 13:25:50;;;;;;;;;;;3.90;99.90;;;;;;4875081;29;19927;-78
2023/03/02 13:28:27;;;;;;;;;;;4.00;99.90;;;;;;4869066;29;20395;-77
2023/03/02 13:30:58;;;;;;;;;;;4.10;99.90;;;;;;4890052;29;19928;-77
2023/03/02 13:33:26;;;;;;;;;;;4.10;99.90;;;;;;4871791;29;19929;-78
2023/03/02 13:35:54;;;;;;;;;;;4.10;99.90;;;;;;4870182;29;20000;-78
2023/03/02 13:38:22;;;;;;;;;;;4.20;99.90;;;;;;4905601;29;20391;-77
2023/03/02 13:40:50;;;;;;;;;;;4.20;99.90;;;;;;4874550;29;19983;-78
2023/03/02 13:43:38;;;;;;;;;;;4.30;99.90;;;;;;4891477;29;20407;-77
2023/03/02 13:46:24;;;;;;;;;;;4.40;99.90;;;;;;4869310;29;19935;-78
2023/03/02 13:48:54;;;;;;;;;;;4.40;99.90;;;;;;4874999;29;19987;-78
2023/03/02 13:51:24;;;;;;;;;;;4.40;99.90;;;;;;4882802;29;19928;-80
2023/03/02 13:53:58;;;;;;;;;;;4.50;99.90;;;;;;4871281;29;20239;-78
2023/03/02 13:56:28;;;;;;;;;;;4.60;99.90;;;;;;4883885;29;19927;-79
2023/03/02 13:58:55;;;;;;;;;;;4.60;99.90;;;;;;4873136;29;19928;-78
2023/03/02 14:01:24;;;;;;;;;;;4.60;99.90;;;;;;4875042;29;20369;-78
2023/03/02 14:03:50;;;;;;;;;;;4.70;99.90;;;;;;4878508;29;20447;-79
2023/03/02 14:06:17;;;;;;;;;;;4.80;99.90;;;;;;4875014;29;19928;-78
2023/03/02 14:08:44;;;;;;;;;;;4.80;99.90;;;;;;4875849;29;19943;-78
2023/03/02 14:11:12;;;;;;;;;;;4.70;99.90;;;;;;4868857;29;19979;-78
2023/03/02 14:13:41;;;;;;;;;;;4.80;99.90;;;;;;4876337;29;19935;-78
2023/03/02 14:16:11;;;;;;;;;;;4.80;99.90;;;;;;4874192;29;19928;-78
2023/03/02 14:18:40;;;;;;;;;;;4.80;99.90;;;;;;4876974;29;19950;-78
2023/03/02 14:21:10;;;;;;;;;;;5.00;99.90;;;;;;4875127;29;19927;-78
2023/03/02 14:23:38;;;;;;;;;;;5.10;99.90;;;;;;4874262;29;19936;-77
2023/03/02 14:26:09;;;;;;;;;;;5.10;99.90;;;;;;4879072;29;19963;-78
2023/03/02 14:28:36;;;;;;;;;;;5.10;99.90;;;;;;4876597;29;19979;-78
2023/03/02 14:31:03;;;;;;;;;;;5.10;99.90;;;;;;4876503;29;19935;-78
2023/03/02 14:33:30;;;;;;;;;;;5.20;99.90;;;;;;4872059;29;19931;-78
2023/03/02 14:35:58;;;;;;;;;;;5.20;99.90;;;;;;4873876;29;20027;-77
2023/03/02 14:38:26;;;;;;;;;;;5.20;99.90;;;;;;4877853;29;20409;-78